sensor_id;sensor_type;location;lat;lon;timestamp;temperature;humidity
66582;SHT31;53438;48.898;2.308;2024-02-28T00:01:06;5.87;82.08
66582;SHT31;53438;48.898;2.308;2024-02-28T00:03:31;5.83;82.15
66582;SHT31;53438;48.898;2.308;2024-02-28T00:05:58;5.83;82.49
66582;SHT31;53438;48.898;2.308;2024-02-28T00:08:23;5.83;82.27
66582;SHT31;53438;48.898;2.308;2024-02-28T00:10:49;5.86;82.47
66582;SHT31;53438;48.898;2.308;2024-02-28T00:13:15;5.92;82.59
66582;SHT31;53438;48.898;2.308;2024-02-28T00:15:41;5.96;82.53
66582;SHT31;53438;48.898;2.308;2024-02-28T00:18:07;5.93;82.57
66582;SHT31;53438;48.898;2.308;2024-02-28T00:20:32;5.85;82.63
66582;SHT31;53438;48.898;2.308;2024-02-28T00:22:57;5.85;82.64
66582;SHT31;53438;48.898;2.308;2024-02-28T00:25:23;5.86;82.86
66582;SHT31;53438;48.898;2.308;2024-02-28T00:27:48;5.86;82.74
66582;SHT31;53438;48.898;2.308;2024-02-28T00:30:13;5.76;82.92
66582;SHT31;53438;48.898;2.308;2024-02-28T00:32:39;5.82;82.83
66582;SHT31;53438;48.898;2.308;2024-02-28T00:35:05;5.86;82.89
66582;SHT31;53438;48.898;2.308;2024-02-28T00:37:30;5.87;82.95
66582;SHT31;53438;48.898;2.308;2024-02-28T00:39:55;5.87;82.91
66582;SHT31;53438;48.898;2.308;2024-02-28T00:42:21;5.79;83.15
66582;SHT31;53438;48.898;2.308;2024-02-28T00:44:47;5.77;82.97
66582;SHT31;53438;48.898;2.308;2024-02-28T00:47:12;5.79;83.38
66582;SHT31;53438;48.898;2.308;2024-02-28T00:49:37;5.75;83.24
66582;SHT31;53438;48.898;2.308;2024-02-28T00:52:03;5.72;83.25
66582;SHT31;53438;48.898;2.308;2024-02-28T00:54:28;5.73;83.31
66582;SHT31;53438;48.898;2.308;2024-02-28T00:56:54;5.77;83.31
66582;SHT31;53438;48.898;2.308;2024-02-28T00:59:19;5.77;83.18
66582;SHT31;53438;48.898;2.308;2024-02-28T04:00:40;5.56;83.72
66582;SHT31;53438;48.898;2.308;2024-02-28T04:03:09;5.66;83.43
66582;SHT31;53438;48.898;2.308;2024-02-28T04:05:35;5.66;83.03
66582;SHT31;53438;48.898;2.308;2024-02-28T04:08:00;5.72;83.05
66582;SHT31;53438;48.898;2.308;2024-02-28T04:10:25;5.77;82.87
66582;SHT31;53438;48.898;2.308;2024-02-28T04:12:51;5.79;82.77
66582;SHT31;53438;48.898;2.308;2024-02-28T04:15:16;5.77;82.76
66582;SHT31;53438;48.898;2.308;2024-02-28T04:17:42;5.76;82.78
66582;SHT31;53438;48.898;2.308;2024-02-28T04:20:11;5.82;82.64
66582;SHT31;53438;48.898;2.308;2024-02-28T04:22:37;5.76;82.73
66582;SHT31;53438;48.898;2.308;2024-02-28T04:25:04;5.86;82.55
66582;SHT31;53438;48.898;2.308;2024-02-28T04:27:30;5.63;82.80
66582;SHT31;53438;48.898;2.308;2024-02-28T04:29:55;5.54;83.50
66582;SHT31;53438;48.898;2.308;2024-02-28T04:32:20;5.58;83.38
66582;SHT31;53438;48.898;2.308;2024-02-28T04:34:46;5.65;83.20
66582;SHT31;53438;48.898;2.308;2024-02-28T04:37:11;5.76;83.07
66582;SHT31;53438;48.898;2.308;2024-02-28T04:39:37;5.75;82.89
66582;SHT31;53438;48.898;2.308;2024-02-28T04:42:02;5.52;83.49
66582;SHT31;53438;48.898;2.308;2024-02-28T04:44:27;5.62;83.32
66582;SHT31;53438;48.898;2.308;2024-02-28T04:46:53;5.62;83.35
66582;SHT31;53438;48.898;2.308;2024-02-28T04:49:18;5.42;84.10
66582;SHT31;53438;48.898;2.308;2024-02-28T04:51:43;5.44;84.12
66582;SHT31;53438;48.898;2.308;2024-02-28T04:54:09;5.55;83.90
66582;SHT31;53438;48.898;2.308;2024-02-28T04:56:39;5.65;83.69
66582;SHT31;53438;48.898;2.308;2024-02-28T04:59:05;5.75;83.51
66582;SHT31;53438;48.898;2.308;2024-02-28T05:01:30;5.76;83.23
66582;SHT31;53438;48.898;2.308;2024-02-28T05:03:56;5.86;83.11
66582;SHT31;53438;48.898;2.308;2024-02-28T05:06:21;5.90;83.00
66582;SHT31;53438;48.898;2.308;2024-02-28T05:08:47;5.83;82.83
66582;SHT31;53438;48.898;2.308;2024-02-28T05:11:12;5.87;82.99
66582;SHT31;53438;48.898;2.308;2024-02-28T05:13:38;5.86;83.03
66582;SHT31;53438;48.898;2.308;2024-02-28T05:16:03;5.89;82.93
66582;SHT31;53438;48.898;2.308;2024-02-28T05:18:29;5.97;82.79
66582;SHT31;53438;48.898;2.308;2024-02-28T05:20:54;5.93;82.76
66582;SHT31;53438;48.898;2.308;2024-02-28T05:23:20;5.96;82.81
66582;SHT31;53438;48.898;2.308;2024-02-28T05:25:46;5.95;82.75
66582;SHT31;53438;48.898;2.308;2024-02-28T05:28:11;6.00;82.62
66582;SHT31;53438;48.898;2.308;2024-02-28T05:30:37;6.02;82.58
66582;SHT31;53438;48.898;2.308;2024-02-28T05:33:05;6.05;82.58
66582;SHT31;53438;48.898;2.308;2024-02-28T05:35:30;6.10;82.47
66582;SHT31;53438;48.898;2.308;2024-02-28T05:37:56;6.09;82.43
66582;SHT31;53438;48.898;2.308;2024-02-28T05:40:22;5.90;83.02
66582;SHT31;53438;48.898;2.308;2024-02-28T05:42:47;5.89;82.98
66582;SHT31;53438;48.898;2.308;2024-02-28T05:45:13;5.95;82.88
66582;SHT31;53438;48.898;2.308;2024-02-28T05:47:38;5.95;82.85
66582;SHT31;53438;48.898;2.308;2024-02-28T05:50:04;5.92;82.59
66582;SHT31;53438;48.898;2.308;2024-02-28T05:52:30;5.97;82.50
66582;SHT31;53438;48.898;2.308;2024-02-28T05:54:56;6.03;82.35
66582;SHT31;53438;48.898;2.308;2024-02-28T05:57:21;6.00;82.40
66582;SHT31;53438;48.898;2.308;2024-02-28T05:59:47;6.03;82.31
66582;SHT31;53438;48.898;2.308;2024-02-28T06:02:12;5.99;82.42
66582;SHT31;53438;48.898;2.308;2024-02-28T06:04:38;5.99;82.33
66582;SHT31;53438;48.898;2.308;2024-02-28T06:07:03;6.05;82.21
66582;SHT31;53438;48.898;2.308;2024-02-28T06:09:29;6.06;82.19
66582;SHT31;53438;48.898;2.308;2024-02-28T06:11:54;6.10;82.15
66582;SHT31;53438;48.898;2.308;2024-02-28T06:14:19;6.09;82.11
66582;SHT31;53438;48.898;2.308;2024-02-28T06:16:48;6.07;82.06
66582;SHT31;53438;48.898;2.308;2024-02-28T06:19:13;6.02;82.43
66582;SHT31;53438;48.898;2.308;2024-02-28T06:21:39;6.07;82.33
66582;SHT31;53438;48.898;2.308;2024-02-28T06:24:04;6.10;82.19
66582;SHT31;53438;48.898;2.308;2024-02-28T06:26:30;6.11;82.23
66582;SHT31;53438;48.898;2.308;2024-02-28T06:28:57;6.10;82.20
66582;SHT31;53438;48.898;2.308;2024-02-28T06:31:27;6.06;82.33
66582;SHT31;53438;48.898;2.308;2024-02-28T06:33:55;6.00;82.58
66582;SHT31;53438;48.898;2.308;2024-02-28T06:36:20;6.05;82.50
66582;SHT31;53438;48.898;2.308;2024-02-28T06:38:46;6.03;82.62
66582;SHT31;53438;48.898;2.308;2024-02-28T06:41:11;5.90;82.84
66582;SHT31;53438;48.898;2.308;2024-02-28T06:43:37;5.83;83.12
66582;SHT31;53438;48.898;2.308;2024-02-28T06:46:04;5.65;84.18
66582;SHT31;53438;48.898;2.308;2024-02-28T06:48:30;5.75;83.91
66582;SHT31;53438;48.898;2.308;2024-02-28T06:50:56;5.85;83.57
66582;SHT31;53438;48.898;2.308;2024-02-28T06:53:21;5.96;83.36
66582;SHT31;53438;48.898;2.308;2024-02-28T06:55:47;6.03;83.06
66582;SHT31;53438;48.898;2.308;2024-02-28T06:58:17;6.05;82.90
66582;SHT31;53438;48.898;2.308;2024-02-28T07:00:42;6.00;82.70
66582;SHT31;53438;48.898;2.308;2024-02-28T07:03:08;6.09;82.60
66582;SHT31;53438;48.898;2.308;2024-02-28T07:05:33;6.14;82.42
66582;SHT31;53438;48.898;2.308;2024-02-28T07:07:59;6.09;82.36
66582;SHT31;53438;48.898;2.308;2024-02-28T07:10:25;6.10;82.32
66582;SHT31;53438;48.898;2.308;2024-02-28T07:12:50;6.14;82.34
66582;SHT31;53438;48.898;2.308;2024-02-28T07:15:16;6.21;82.29
66582;SHT31;53438;48.898;2.308;2024-02-28T07:17:44;6.18;82.22
66582;SHT31;53438;48.898;2.308;2024-02-28T07:20:10;6.23;82.19
66582;SHT31;53438;48.898;2.308;2024-02-28T07:22:35;6.31;82.06
66582;SHT31;53438;48.898;2.308;2024-02-28T07:25:01;6.33;82.00
66582;SHT31;53438;48.898;2.308;2024-02-28T07:27:28;6.41;81.89
66582;SHT31;53438;48.898;2.308;2024-02-28T07:29:53;6.41;81.80
66582;SHT31;53438;48.898;2.308;2024-02-28T07:32:19;6.38;81.61
66582;SHT31;53438;48.898;2.308;2024-02-28T07:34:44;6.41;81.70
66582;SHT31;53438;48.898;2.308;2024-02-28T07:37:10;6.45;81.80
66582;SHT31;53438;48.898;2.308;2024-02-28T07:39:36;6.40;82.01
66582;SHT31;53438;48.898;2.308;2024-02-28T07:42:02;6.33;82.24
66582;SHT31;53438;48.898;2.308;2024-02-28T07:44:27;6.42;82.11
66582;SHT31;53438;48.898;2.308;2024-02-28T07:46:56;6.49;82.04
66582;SHT31;53438;48.898;2.308;2024-02-28T07:49:22;6.47;81.83
66582;SHT31;53438;48.898;2.308;2024-02-28T07:51:47;6.58;81.81
66582;SHT31;53438;48.898;2.308;2024-02-28T07:54:12;6.64;81.69
66582;SHT31;53438;48.898;2.308;2024-02-28T07:56:38;6.61;81.57
66582;SHT31;53438;48.898;2.308;2024-02-28T07:59:03;6.65;81.67
66582;SHT31;53438;48.898;2.308;2024-02-28T08:01:28;6.51;81.73
66582;SHT31;53438;48.898;2.308;2024-02-28T08:03:54;6.45;82.15
66582;SHT31;53438;48.898;2.308;2024-02-28T08:06:19;6.44;82.16
66582;SHT31;53438;48.898;2.308;2024-02-28T08:08:45;6.42;82.42
66582;SHT31;53438;48.898;2.308;2024-02-28T08:11:12;6.45;82.67
66582;SHT31;53438;48.898;2.308;2024-02-28T08:13:37;6.52;82.74
66582;SHT31;53438;48.898;2.308;2024-02-28T08:16:02;6.45;82.78
66582;SHT31;53438;48.898;2.308;2024-02-28T08:18:28;6.41;82.91
66582;SHT31;53438;48.898;2.308;2024-02-28T08:20:54;6.28;82.89
66582;SHT31;53438;48.898;2.308;2024-02-28T08:23:22;6.44;82.73
66582;SHT31;53438;48.898;2.308;2024-02-28T08:25:48;6.44;82.54
66582;SHT31;53438;48.898;2.308;2024-02-28T08:28:13;6.55;82.61
66582;SHT31;53438;48.898;2.308;2024-02-28T08:30:39;6.40;82.46
66582;SHT31;53438;48.898;2.308;2024-02-28T08:33:06;6.49;82.65
66582;SHT31;53438;48.898;2.308;2024-02-28T08:35:31;6.59;82.40
66582;SHT31;53438;48.898;2.308;2024-02-28T08:37:57;6.54;82.75
66582;SHT31;53438;48.898;2.308;2024-02-28T08:40:22;6.67;82.46
66582;SHT31;53438;48.898;2.308;2024-02-28T08:42:47;6.82;82.04
66582;SHT31;53438;48.898;2.308;2024-02-28T08:45:14;6.92;81.73
66582;SHT31;53438;48.898;2.308;2024-02-28T08:47:41;7.05;81.44
66582;SHT31;53438;48.898;2.308;2024-02-28T08:50:06;7.23;81.13
66582;SHT31;53438;48.898;2.308;2024-02-28T08:52:32;7.24;80.74
66582;SHT31;53438;48.898;2.308;2024-02-28T08:54:58;7.36;80.50
66582;SHT31;53438;48.898;2.308;2024-02-28T08:57:23;7.43;80.14
66582;SHT31;53438;48.898;2.308;2024-02-28T08:59:50;7.50;79.97
66582;SHT31;53438;48.898;2.308;2024-02-28T09:02:15;7.50;79.84
66582;SHT31;53438;48.898;2.308;2024-02-28T09:04:40;7.60;79.49
66582;SHT31;53438;48.898;2.308;2024-02-28T09:07:06;7.58;79.66
66582;SHT31;53438;48.898;2.308;2024-02-28T09:09:31;7.43;80.07
66582;SHT31;53438;48.898;2.308;2024-02-28T09:12:01;7.53;80.09
66582;SHT31;53438;48.898;2.308;2024-02-28T09:14:28;7.71;78.94
66582;SHT31;53438;48.898;2.308;2024-02-28T09:16:53;7.70;79.41
66582;SHT31;53438;48.898;2.308;2024-02-28T09:19:21;7.92;79.03
66582;SHT31;53438;48.898;2.308;2024-02-28T09:21:46;8.05;78.44
66582;SHT31;53438;48.898;2.308;2024-02-28T09:24:13;7.91;78.62
66582;SHT31;53438;48.898;2.308;2024-02-28T09:26:39;8.15;78.41
66582;SHT31;53438;48.898;2.308;2024-02-28T09:29:04;8.21;77.65
66582;SHT31;53438;48.898;2.308;2024-02-28T09:31:30;8.25;77.89
66582;SHT31;53438;48.898;2.308;2024-02-28T09:33:55;8.19;76.25
66582;SHT31;53438;48.898;2.308;2024-02-28T09:36:23;8.10;76.77
66582;SHT31;53438;48.898;2.308;2024-02-28T09:38:48;8.36;76.82
66582;SHT31;53438;48.898;2.308;2024-02-28T15:24:35;10.82;73.43
66582;SHT31;53438;48.898;2.308;2024-02-28T15:27:00;10.82;73.55
66582;SHT31;53438;48.898;2.308;2024-02-28T15:29:26;10.76;73.82
66582;SHT31;53438;48.898;2.308;2024-02-28T15:31:52;10.79;73.77
66582;SHT31;53438;48.898;2.308;2024-02-28T15:34:18;10.80;73.55
66582;SHT31;53438;48.898;2.308;2024-02-28T15:36:43;10.79;74.08
66582;SHT31;53438;48.898;2.308;2024-02-28T15:39:08;10.77;74.11
66582;SHT31;53438;48.898;2.308;2024-02-28T15:41:34;10.79;74.28
66582;SHT31;53438;48.898;2.308;2024-02-28T15:44:00;10.77;74.39
66582;SHT31;53438;48.898;2.308;2024-02-28T15:46:25;10.82;74.23
66582;SHT31;53438;48.898;2.308;2024-02-28T15:48:51;10.79;74.12
66582;SHT31;53438;48.898;2.308;2024-02-28T15:51:17;10.79;74.09
66582;SHT31;53438;48.898;2.308;2024-02-28T15:53:42;10.80;74.22
66582;SHT31;53438;48.898;2.308;2024-02-28T15:56:08;10.82;73.97
66582;SHT31;53438;48.898;2.308;2024-02-28T15:58:33;10.80;74.46
66582;SHT31;53438;48.898;2.308;2024-02-28T16:00:59;10.77;74.28
66582;SHT31;53438;48.898;2.308;2024-02-28T16:03:24;10.77;74.32
66582;SHT31;53438;48.898;2.308;2024-02-28T16:05:50;10.79;74.29
66582;SHT31;53438;48.898;2.308;2024-02-28T16:08:16;10.76;74.60
66582;SHT31;53438;48.898;2.308;2024-02-28T16:10:44;10.73;74.74
66582;SHT31;53438;48.898;2.308;2024-02-28T16:13:09;10.72;74.81
66582;SHT31;53438;48.898;2.308;2024-02-28T16:15:36;10.71;75.15
66582;SHT31;53438;48.898;2.308;2024-02-28T16:18:02;10.73;75.36
66582;SHT31;53438;48.898;2.308;2024-02-28T16:20:28;10.72;75.30
66582;SHT31;53438;48.898;2.308;2024-02-28T16:22:53;10.69;75.37
66582;SHT31;53438;48.898;2.308;2024-02-28T16:25:19;10.65;75.42
66582;SHT31;53438;48.898;2.308;2024-02-28T16:27:44;10.64;75.75
66582;SHT31;53438;48.898;2.308;2024-02-28T16:30:09;10.65;75.96
66582;SHT31;53438;48.898;2.308;2024-02-28T16:32:35;10.69;76.04
66582;SHT31;53438;48.898;2.308;2024-02-28T16:35:00;10.65;76.10
66582;SHT31;53438;48.898;2.308;2024-02-28T16:37:26;10.64;76.16
66582;SHT31;53438;48.898;2.308;2024-02-28T16:39:51;10.61;76.28
66582;SHT31;53438;48.898;2.308;2024-02-28T16:42:17;10.64;76.74
66582;SHT31;53438;48.898;2.308;2024-02-28T16:44:42;10.62;76.79
66582;SHT31;53438;48.898;2.308;2024-02-28T16:47:08;10.62;76.80
66582;SHT31;53438;48.898;2.308;2024-02-28T16:49:34;10.56;76.67
66582;SHT31;53438;48.898;2.308;2024-02-28T16:51:59;10.58;77.05
66582;SHT31;53438;48.898;2.308;2024-02-28T16:54:25;10.59;76.85
66582;SHT31;53438;48.898;2.308;2024-02-28T16:56:50;10.59;76.96
66582;SHT31;53438;48.898;2.308;2024-02-28T16:59:16;10.56;76.94
66582;SHT31;53438;48.898;2.308;2024-02-28T17:01:41;10.55;76.82
66582;SHT31;53438;48.898;2.308;2024-02-28T17:04:07;10.52;76.88
66582;SHT31;53438;48.898;2.308;2024-02-28T17:06:32;10.54;77.08
66582;SHT31;53438;48.898;2.308;2024-02-28T17:08:57;10.52;77.16
66582;SHT31;53438;48.898;2.308;2024-02-28T17:11:23;10.54;77.48
66582;SHT31;53438;48.898;2.308;2024-02-28T17:13:48;10.49;77.37
66582;SHT31;53438;48.898;2.308;2024-02-28T17:16:14;10.51;77.61
66582;SHT31;53438;48.898;2.308;2024-02-28T17:18:40;10.48;77.70
66582;SHT31;53438;48.898;2.308;2024-02-28T17:21:06;10.46;77.60
66582;SHT31;53438;48.898;2.308;2024-02-28T17:23:32;10.46;77.65
66582;SHT31;53438;48.898;2.308;2024-02-28T17:25:58;10.46;77.68
66582;SHT31;53438;48.898;2.308;2024-02-28T17:28:23;10.46;77.86
66582;SHT31;53438;48.898;2.308;2024-02-28T17:30:49;10.44;77.81
66582;SHT31;53438;48.898;2.308;2024-02-28T17:33:14;10.45;77.77
66582;SHT31;53438;48.898;2.308;2024-02-28T17:35:40;10.44;78.03
66582;SHT31;53438;48.898;2.308;2024-02-28T17:38:07;10.46;77.96
66582;SHT31;53438;48.898;2.308;2024-02-28T17:40:32;10.45;77.96
66582;SHT31;53438;48.898;2.308;2024-02-28T17:42:59;10.46;77.85
66582;SHT31;53438;48.898;2.308;2024-02-28T17:45:24;10.46;77.78
66582;SHT31;53438;48.898;2.308;2024-02-28T17:47:49;10.52;77.76
66582;SHT31;53438;48.898;2.308;2024-02-28T17:50:15;10.51;77.79
66582;SHT31;53438;48.898;2.308;2024-02-28T17:52:42;10.49;77.88
66582;SHT31;53438;48.898;2.308;2024-02-28T17:55:09;10.48;77.73
66582;SHT31;53438;48.898;2.308;2024-02-28T17:57:34;10.49;78.05
66582;SHT31;53438;48.898;2.308;2024-02-28T18:00:04;10.45;78.16
66582;SHT31;53438;48.898;2.308;2024-02-28T18:02:40;10.45;78.26
66582;SHT31;53438;48.898;2.308;2024-02-28T18:05:08;10.49;78.20
66582;SHT31;53438;48.898;2.308;2024-02-28T18:07:33;10.45;78.34
66582;SHT31;53438;48.898;2.308;2024-02-28T18:09:59;10.46;78.21
66582;SHT31;53438;48.898;2.308;2024-02-28T18:12:25;10.44;78.26
66582;SHT31;53438;48.898;2.308;2024-02-28T18:14:50;10.45;78.28
66582;SHT31;53438;48.898;2.308;2024-02-28T18:17:16;10.41;78.47
66582;SHT31;53438;48.898;2.308;2024-02-28T18:19:41;10.40;78.58
66582;SHT31;53438;48.898;2.308;2024-02-28T18:22:06;10.41;78.89
66582;SHT31;53438;48.898;2.308;2024-02-28T18:24:35;10.42;78.82
66582;SHT31;53438;48.898;2.308;2024-02-28T18:27:01;10.41;78.83
66582;SHT31;53438;48.898;2.308;2024-02-28T18:29:26;10.41;79.01
66582;SHT31;53438;48.898;2.308;2024-02-28T18:31:51;10.38;79.01
66582;SHT31;53438;48.898;2.308;2024-02-28T18:34:17;10.38;79.16
66582;SHT31;53438;48.898;2.308;2024-02-28T18:36:42;10.40;79.34
66582;SHT31;53438;48.898;2.308;2024-02-28T18:39:08;10.40;79.33
66582;SHT31;53438;48.898;2.308;2024-02-28T18:41:34;10.34;79.21
66582;SHT31;53438;48.898;2.308;2024-02-28T18:43:59;10.34;79.25
66582;SHT31;53438;48.898;2.308;2024-02-28T18:46:24;10.33;79.34
66582;SHT31;53438;48.898;2.308;2024-02-28T18:48:50;10.35;79.37
66582;SHT31;53438;48.898;2.308;2024-02-28T18:51:16;10.34;79.38
66582;SHT31;53438;48.898;2.308;2024-02-28T18:53:41;10.34;79.45
66582;SHT31;53438;48.898;2.308;2024-02-28T18:56:08;10.33;79.48
66582;SHT31;53438;48.898;2.308;2024-02-28T18:58:34;10.30;79.56
66582;SHT31;53438;48.898;2.308;2024-02-28T19:01:01;10.28;79.68
66582;SHT31;53438;48.898;2.308;2024-02-28T19:03:26;10.30;79.99
66582;SHT31;53438;48.898;2.308;2024-02-28T19:05:51;10.30;79.88
66582;SHT31;53438;48.898;2.308;2024-02-28T19:08:17;10.25;79.73
66582;SHT31;53438;48.898;2.308;2024-02-28T19:10:42;10.25;79.86
66582;SHT31;53438;48.898;2.308;2024-02-28T19:13:07;10.25;79.84
66582;SHT31;53438;48.898;2.308;2024-02-28T19:15:35;10.25;79.94
66582;SHT31;53438;48.898;2.308;2024-02-28T19:18:01;10.22;80.06
66582;SHT31;53438;48.898;2.308;2024-02-28T19:20:26;10.21;80.23
66582;SHT31;53438;48.898;2.308;2024-02-28T19:22:52;10.21;80.20
66582;SHT31;53438;48.898;2.308;2024-02-28T19:25:17;10.21;80.29
66582;SHT31;53438;48.898;2.308;2024-02-28T19:27:43;10.20;80.27
66582;SHT31;53438;48.898;2.308;2024-02-28T19:30:08;10.17;80.28
66582;SHT31;53438;48.898;2.308;2024-02-28T19:32:34;10.14;80.16
66582;SHT31;53438;48.898;2.308;2024-02-28T19:35:02;10.16;80.29
66582;SHT31;53438;48.898;2.308;2024-02-28T19:37:29;10.14;80.41
66582;SHT31;53438;48.898;2.308;2024-02-28T19:39:54;10.13;80.49
66582;SHT31;53438;48.898;2.308;2024-02-28T19:42:24;10.13;80.25
66582;SHT31;53438;48.898;2.308;2024-02-28T19:44:50;10.10;80.30
66582;SHT31;53438;48.898;2.308;2024-02-28T19:47:15;10.08;80.45
66582;SHT31;53438;48.898;2.308;2024-02-28T19:49:41;10.07;80.60
66582;SHT31;53438;48.898;2.308;2024-02-28T19:52:06;10.08;80.58
66582;SHT31;53438;48.898;2.308;2024-02-28T19:54:32;10.06;80.76
66582;SHT31;53438;48.898;2.308;2024-02-28T19:56:58;10.06;80.85
66582;SHT31;53438;48.898;2.308;2024-02-28T19:59:23;10.03;80.83
66582;SHT31;53438;48.898;2.308;2024-02-28T20:01:49;10.03;81.02
66582;SHT31;53438;48.898;2.308;2024-02-28T20:04:14;10.03;81.15
66582;SHT31;53438;48.898;2.308;2024-02-28T20:06:39;10.07;81.05
66582;SHT31;53438;48.898;2.308;2024-02-28T20:09:08;10.03;81.01
66582;SHT31;53438;48.898;2.308;2024-02-28T20:11:33;10.03;80.99
66582;SHT31;53438;48.898;2.308;2024-02-28T20:13:58;9.97;81.13
66582;SHT31;53438;48.898;2.308;2024-02-28T20:16:24;9.91;81.32
66582;SHT31;53438;48.898;2.308;2024-02-28T20:18:49;9.97;81.29
66582;SHT31;53438;48.898;2.308;2024-02-28T20:21:15;9.91;81.28
66582;SHT31;53438;48.898;2.308;2024-02-28T20:23:41;9.93;81.36
66582;SHT31;53438;48.898;2.308;2024-02-28T20:26:06;9.90;81.39
66582;SHT31;53438;48.898;2.308;2024-02-28T20:28:32;9.89;81.41
66582;SHT31;53438;48.898;2.308;2024-02-28T20:30:58;9.89;81.41
66582;SHT31;53438;48.898;2.308;2024-02-28T20:33:23;9.89;81.46
66582;SHT31;53438;48.898;2.308;2024-02-28T20:35:50;9.86;81.57
66582;SHT31;53438;48.898;2.308;2024-02-28T20:38:16;9.83;81.67
66582;SHT31;53438;48.898;2.308;2024-02-28T20:40:41;9.83;81.62
66582;SHT31;53438;48.898;2.308;2024-02-28T20:43:07;9.82;81.60
66582;SHT31;53438;48.898;2.308;2024-02-28T20:45:32;9.83;81.66
66582;SHT31;53438;48.898;2.308;2024-02-28T20:48:00;9.85;81.58
66582;SHT31;53438;48.898;2.308;2024-02-28T20:50:25;9.82;81.52
66582;SHT31;53438;48.898;2.308;2024-02-28T20:52:50;9.85;81.61
66582;SHT31;53438;48.898;2.308;2024-02-28T20:55:17;9.85;81.70
66582;SHT31;53438;48.898;2.308;2024-02-28T20:57:42;9.79;81.81
66582;SHT31;53438;48.898;2.308;2024-02-28T21:00:09;9.79;81.81
66582;SHT31;53438;48.898;2.308;2024-02-28T21:02:37;9.76;81.83
66582;SHT31;53438;48.898;2.308;2024-02-28T21:05:02;9.77;81.75
66582;SHT31;53438;48.898;2.308;2024-02-28T21:07:28;9.79;81.75
66582;SHT31;53438;48.898;2.308;2024-02-28T21:09:53;9.79;81.67
66582;SHT31;53438;48.898;2.308;2024-02-28T21:12:19;9.79;81.62
66582;SHT31;53438;48.898;2.308;2024-02-28T21:14:51;9.75;81.76
66582;SHT31;53438;48.898;2.308;2024-02-28T21:17:16;9.77;81.79
66582;SHT31;53438;48.898;2.308;2024-02-28T21:19:41;9.70;81.77
66582;SHT31;53438;48.898;2.308;2024-02-28T21:22:07;9.66;81.76
66582;SHT31;53438;48.898;2.308;2024-02-28T21:24:32;9.65;81.98
66582;SHT31;53438;48.898;2.308;2024-02-28T21:26:58;9.66;82.14
66582;SHT31;53438;48.898;2.308;2024-02-28T21:29:24;9.65;82.08
66582;SHT31;53438;48.898;2.308;2024-02-28T21:31:49;9.65;81.81
66582;SHT31;53438;48.898;2.308;2024-02-28T21:34:14;9.63;81.91
66582;SHT31;53438;48.898;2.308;2024-02-28T21:36:40;9.65;81.78
66582;SHT31;53438;48.898;2.308;2024-02-28T21:39:05;9.69;81.85
66582;SHT31;53438;48.898;2.308;2024-02-28T21:41:34;9.66;81.76
66582;SHT31;53438;48.898;2.308;2024-02-28T21:43:59;9.67;81.82
66582;SHT31;53438;48.898;2.308;2024-02-28T21:46:25;9.66;81.74
66582;SHT31;53438;48.898;2.308;2024-02-28T21:48:52;9.63;81.73
66582;SHT31;53438;48.898;2.308;2024-02-28T21:51:18;9.62;81.73
66582;SHT31;53438;48.898;2.308;2024-02-28T21:53:44;9.60;81.70
66582;SHT31;53438;48.898;2.308;2024-02-28T21:56:10;9.60;81.71
66582;SHT31;53438;48.898;2.308;2024-02-28T21:58:35;9.63;81.78
66582;SHT31;53438;48.898;2.308;2024-02-28T22:01:01;9.60;81.80
66582;SHT31;53438;48.898;2.308;2024-02-28T22:03:26;9.62;81.62
66582;SHT31;53438;48.898;2.308;2024-02-28T22:05:52;9.63;81.49
66582;SHT31;53438;48.898;2.308;2024-02-28T22:08:18;9.57;81.39
66582;SHT31;53438;48.898;2.308;2024-02-28T22:10:43;9.56;81.36
66582;SHT31;53438;48.898;2.308;2024-02-28T22:13:08;9.59;81.24
66582;SHT31;53438;48.898;2.308;2024-02-28T22:15:34;9.60;81.25
66582;SHT31;53438;48.898;2.308;2024-02-28T22:17:59;9.59;81.17
66582;SHT31;53438;48.898;2.308;2024-02-28T22:20:24;9.56;81.25
66582;SHT31;53438;48.898;2.308;2024-02-28T22:22:50;9.59;81.00
66582;SHT31;53438;48.898;2.308;2024-02-28T22:25:16;9.59;81.12
66582;SHT31;53438;48.898;2.308;2024-02-28T22:27:41;9.65;80.90
66582;SHT31;53438;48.898;2.308;2024-02-28T22:30:07;9.63;80.73
66582;SHT31;53438;48.898;2.308;2024-02-28T22:32:32;9.65;80.70
66582;SHT31;53438;48.898;2.308;2024-02-28T22:34:58;9.65;80.63
66582;SHT31;53438;48.898;2.308;2024-02-28T22:37:23;9.66;80.50
66582;SHT31;53438;48.898;2.308;2024-02-28T22:39:48;9.67;80.41
66582;SHT31;53438;48.898;2.308;2024-02-28T22:42:16;9.69;80.33
66582;SHT31;53438;48.898;2.308;2024-02-28T22:44:41;9.67;80.20
66582;SHT31;53438;48.898;2.308;2024-02-28T22:47:08;9.69;80.16
66582;SHT31;53438;48.898;2.308;2024-02-28T22:49:33;9.65;80.21
66582;SHT31;53438;48.898;2.308;2024-02-28T22:51:59;9.63;80.17
66582;SHT31;53438;48.898;2.308;2024-02-28T22:54:24;9.59;80.15
66582;SHT31;53438;48.898;2.308;2024-02-28T22:56:49;9.62;80.25
66582;SHT31;53438;48.898;2.308;2024-02-28T22:59:16;9.62;80.18
66582;SHT31;53438;48.898;2.308;2024-02-28T23:01:42;9.65;80.04
66582;SHT31;53438;48.898;2.308;2024-02-28T23:04:07;9.66;80.09
66582;SHT31;53438;48.898;2.308;2024-02-28T23:06:32;9.66;79.90
66582;SHT31;53438;48.898;2.308;2024-02-28T23:08:58;9.69;80.14
66582;SHT31;53438;48.898;2.308;2024-02-28T23:11:23;9.70;80.16
66582;SHT31;53438;48.898;2.308;2024-02-28T23:13:48;9.70;79.91
66582;SHT31;53438;48.898;2.308;2024-02-28T23:16:14;9.73;79.88
66582;SHT31;53438;48.898;2.308;2024-02-28T23:18:40;9.70;79.84
66582;SHT31;53438;48.898;2.308;2024-02-28T23:21:07;9.72;79.79
66582;SHT31;53438;48.898;2.308;2024-02-28T23:23:32;9.75;79.84
66582;SHT31;53438;48.898;2.308;2024-02-28T23:25:57;9.75;79.65
66582;SHT31;53438;48.898;2.308;2024-02-28T23:28:23;9.76;79.81
66582;SHT31;53438;48.898;2.308;2024-02-28T23:30:48;9.75;79.81
66582;SHT31;53438;48.898;2.308;2024-02-28T23:33:13;9.75;79.66
66582;SHT31;53438;48.898;2.308;2024-02-28T23:35:39;9.73;79.77
66582;SHT31;53438;48.898;2.308;2024-02-28T23:38:05;9.73;79.79
66582;SHT31;53438;48.898;2.308;2024-02-28T23:40:31;9.75;79.97
66582;SHT31;53438;48.898;2.308;2024-02-28T23:42:57;9.75;79.95
66582;SHT31;53438;48.898;2.308;2024-02-28T23:45:23;9.79;79.69
66582;SHT31;53438;48.898;2.308;2024-02-28T23:47:48;9.75;79.86
66582;SHT31;53438;48.898;2.308;2024-02-28T23:50:13;9.76;79.98
66582;SHT31;53438;48.898;2.308;2024-02-28T23:52:40;9.76;80.18
66582;SHT31;53438;48.898;2.308;2024-02-28T23:55:06;9.79;80.14
66582;SHT31;53438;48.898;2.308;2024-02-28T23:57:31;9.79;80.31
66582;SHT31;53438;48.898;2.308;2024-02-28T23:59:57;9.79;80.22
